Flight Track Log - Related Links

Times and Time Zones

All times are in EDT time to prevent confusion due to time zone crossing. See the VRT51 flight status page for this flight to view local times or setup timezone preferences in your user account.

Time Position Orientation Groundspeed Altitude Reporting Facility
EDT Latitude Longitude Course Direction KTS MPH feet Rate Location/Type
Fri 11:10:53 PM 40.0000 -86.2500 226° Southwest 175 201 2,000  Level Indianapolis TRACON
Fri 11:12:11 PM 39.9500 -86.3167 226° Southwest 252 290 5,600 2,912 Climbing Indianapolis TRACON
Fri 11:13:09 PM 39.8978 -86.3717 219° Southwest 247 284 8,600 3,025 Climbing Indianapolis Center
Fri 11:14:10 PM 39.8217 -86.4036 198° South 295 339 11,600 3,098 Climbing Indianapolis Center
Fri 11:15:11 PM 39.7261 -86.3850 171° South 348 400 14,900 3,098 Climbing Indianapolis Center
Fri 11:16:12 PM 39.6214 -86.3656 172° South 386 444 17,900 3,689 Climbing Indianapolis Center
Fri 11:17:13 PM 39.4978 -86.3425 172° South 380 437 22,400 2,976 Climbing Indianapolis Center
Fri 11:18:15 PM 39.4003 -86.3244 172° South 360 414 24,000 1,268 Climbing Indianapolis Center
Fri 11:19:16 PM 39.2894 -86.3261 181° South 399 459 25,000 984 Climbing Indianapolis Center
Fri 11:20:17 PM 39.1797 -86.3661 196° South 410 472 26,000 492 Climbing Indianapolis Center
Fri 11:21:18 PM 39.0661 -86.4022 194° South 420 483 26,000  Level Indianapolis Center
Fri 11:22:19 PM 38.9539 -86.4378 194° South 417 480 26,000  Level Indianapolis Center
Fri 11:23:20 PM 38.8464 -86.4717 194° South 416 479 26,000  Level Indianapolis Center
Fri 11:24:21 PM 38.7339 -86.5081 194° South 415 478 26,000  Level Indianapolis Center
Fri 11:25:22 PM 38.6208 -86.5439 194° South 414 476 26,000  Level Indianapolis Center
Fri 11:26:23 PM 38.5075 -86.5797 194° South 416 479 26,000  Level Indianapolis Center
Fri 11:27:25 PM 38.3892 -86.6161 194° South 428 493 26,000  Level Indianapolis Center
Fri 11:28:26 PM 38.2444 -86.6614 194° South 438 504 26,000  Level Indianapolis Center
Fri 11:29:27 PM 38.1242 -86.6989 194° South 438 504 26,000  Level Indianapolis Center
Fri 11:30:28 PM 38.0033 -86.7358 194° South 440 506 26,000 -689 Level Indianapolis Center
Fri 11:31:29 PM 37.8872 -86.7728 194° South 428 493 24,600 -1,426 Descending Indianapolis Center
Fri 11:32:30 PM 37.7747 -86.8081 194° South 415 478 23,100 -787 Descending Indianapolis Center
Fri 11:33:31 PM 37.6636 -86.8428 194° South 411 473 23,000 -49 Descending Indianapolis Center
Fri 11:34:32 PM 37.5525 -86.8778 194° South 408 470 23,000  Level Indianapolis Center
Fri 11:35:33 PM 37.4358 -86.9114 193° South 411 473 23,000  Level Indianapolis Center
Fri 11:36:34 PM 37.3222 -86.9472 194° South 416 479 23,000 -295 Level Indianapolis Center
Fri 11:37:35 PM 37.2097 -86.9808 193° South 413 475 22,400 -821 Descending Indianapolis Center
Fri 11:38:31 PM 37.1158 -87.0089 193° South 418 481 21,400 -1,444 Descending Memphis Center
Fri 11:39:23 PM 37.0125 -87.0394 193° South 402 463 19,800 -1,900 Descending Memphis Center
Fri 11:40:31 PM 36.8989 -87.0753 194° South 407 468 17,600 -5,063 Descending Memphis Center
Fri 11:41:31 PM 36.7906 -87.0822 183° South 405 466 9,000 -2,850 Descending Memphis Center
Fri 11:42:31 PM 36.6828 -87.0192 155° Southeast 383 441 11,900 500 Climbing Memphis Center
Fri 11:43:31 PM 36.5914 -86.9611 153° Southeast 372 428 10,000 -1,550 Descending Memphis Center
Fri 11:44:31 PM 36.5194 -86.9150 153° Southeast 330 380 8,800 -1,600 Descending Memphis Center
Fri 11:45:31 PM 36.4650 -86.8347 130° Southeast 301 346 6,800 -1,400 Descending Memphis Center
Fri 11:46:31 PM 36.4128 -86.7544 129° Southeast 295 339 6,000 -800 Descending Memphis Center
Fri 11:47:31 PM 36.3669 -86.6869 130° Southeast 295 339 5,200 -1,250 Descending Memphis Center
Fri 11:48:31 PM 36.3111 -86.6328 142° Southeast 275 316 3,500 -1,150 Descending Memphis Center
Fri 11:49:31 PM 36.2483 -86.6256 175° South 234 269 2,900 -750 Descending Memphis Center
Fri 11:50:31 PM 36.2067 -86.6300 185° South 184 212 2,000 -750 Descending Memphis Center
Fri 11:51:31 PM 36.1739 -86.6442 199° South 139 160 1,400 -600 Descending Memphis Center
Fri 11:52:31 PM 36.1386 -86.6561 195° South 126 145 800 -350 Descending Memphis Center
Fri 11:53:31 PM 36.1078 -86.6703 200° South 126 145 700 -100 Descending Memphis Center
Fri 11:55:00 PM 36.1171 -86.6664 208° Southwest  Level FlightAware Approximate
Sat 12:02:00 AM 36.1167 -86.6667 208° Southwest  Level FlightAware Approximate
Sat 12:03:00 AM 36.1245 -86.6782 208° Southwest  Level Estimated
Sat 12:04:00 AM 36.1245 -86.6782 208° Southwest  Level Estimated
Sat 12:05:00 AM 36.1245 -86.6782 208° Southwest  Level Estimated
Sat 12:06:00 AM 36.1245 -86.6782 208° Southwest  Level Estimated
Sat 12:07:00 AM 36.1245 -86.6782 208° Southwest  Level Estimated
Sat 12:08:00 AM 36.1245 -86.6782 208° Southwest  Level Estimated

Login

Don't have an account? Register now (free) for customized features, flight alerts, and more!